Time;durP1;ratioP1;P1;durP2;ratioP2;P2;SDS_P1;SDS_P2;PMS_P1;PMS_P2;Temp;Humidity;BMP_temperature;BMP_pressure;BME280_temperature;BME280_humidity;BME280_pressure;Samples;Min_cycle;Max_cycle;Signal;HPM_P1;HPM_P2
2022/09/01 00:00:48;;;;;;;8.52;7.63;;;18.50;68.90;;;;;;5046072;28;20025;-62
2022/09/01 00:03:18;;;;;;;8.63;7.43;;;18.50;69.10;;;;;;5048264;28;20029;-62
2022/09/01 00:05:49;;;;;;;9.32;7.63;;;18.50;69.20;;;;;;5055736;28;20017;-63
2022/09/01 00:08:15;;;;;;;10.18;7.43;;;18.50;68.90;;;;;;5062305;28;20033;-62
2022/09/01 00:10:41;;;;;;;7.82;7.03;;;18.50;68.90;;;;;;5043818;28;20044;-62
2022/09/01 00:13:07;;;;;;;11.00;7.50;;;18.50;68.90;;;;;;5052089;28;20029;-62
2022/09/01 00:15:35;;;;;;;7.57;6.65;;;18.50;69.00;;;;;;5043735;28;20142;-63
2022/09/01 00:18:00;;;;;;;9.75;7.28;;;18.50;69.10;;;;;;5049195;28;20075;-62
2022/09/01 00:20:26;;;;;;;7.82;6.68;;;18.50;69.00;;;;;;5057479;28;21187;-62
2022/09/01 00:22:52;;;;;;;9.50;7.22;;;18.50;69.00;;;;;;5057436;28;20026;-62
2022/09/01 00:25:19;;;;;;;7.75;6.82;;;18.50;69.00;;;;;;5049188;28;20832;-64
2022/09/01 00:27:47;;;;;;;10.45;6.45;;;18.50;68.90;;;;;;5048274;28;20026;-62
2022/09/01 00:30:13;;;;;;;7.70;6.47;;;18.50;69.00;;;;;;5054642;28;20059;-64
2022/09/01 00:32:38;;;;;;;9.93;7.50;;;18.50;69.00;;;;;;5056638;28;20064;-63
2022/09/01 00:35:04;;;;;;;10.02;7.47;;;18.50;68.90;;;;;;5060866;28;20025;-61
2022/09/01 00:37:30;;;;;;;8.75;7.18;;;18.50;68.90;;;;;;5043061;28;20038;-63
2022/09/01 00:39:56;;;;;;;8.80;6.43;;;18.50;68.90;;;;;;5054644;28;20030;-62
2022/09/01 00:42:22;;;;;;;7.88;6.57;;;18.50;68.90;;;;;;5046807;28;20116;-62
2022/09/01 00:44:48;;;;;;;11.00;7.22;;;18.50;68.90;;;;;;5052687;28;20112;-62
2022/09/01 00:47:14;;;;;;;8.77;7.32;;;18.50;68.90;;;;;;5045765;28;20052;-63
2022/09/01 00:49:45;;;;;;;13.98;7.18;;;18.50;68.90;;;;;;5063994;28;20029;-62
2022/09/01 00:52:32;;;;;;;11.02;6.03;;;18.50;69.40;;;;;;5051064;28;20045;-63
2022/09/01 00:55:02;;;;;;;7.95;6.13;;;18.50;69.50;;;;;;5045317;28;20479;-63
2022/09/01 00:57:28;;;;;;;8.77;6.15;;;18.40;68.70;;;;;;5045169;28;20108;-62
2022/09/01 00:59:59;;;;;;;11.50;6.90;;;18.40;68.40;;;;;;5049518;28;20063;-64
2022/09/01 01:02:25;;;;;;;8.43;7.18;;;18.30;68.80;;;;;;5044080;28;20037;-64
2022/09/01 01:04:51;;;;;;;11.05;6.63;;;18.30;68.60;;;;;;5085095;28;20106;-64
2022/09/01 01:07:21;;;;;;;7.97;6.57;;;18.20;68.80;;;;;;5045063;28;20041;-63
2022/09/01 01:09:49;;;;;;;8.23;6.57;;;18.20;69.00;;;;;;5049074;28;20127;-62
2022/09/01 01:12:17;;;;;;;7.03;6.32;;;18.10;68.90;;;;;;5045932;28;20037;-63
2022/09/01 01:14:49;;;;;;;10.25;7.05;;;18.10;69.00;;;;;;5043684;28;20085;-63
2022/09/01 01:17:16;;;;;;;8.38;7.03;;;18.10;69.10;;;;;;5044748;28;20025;-63
2022/09/01 01:25:17;;;;;;;8.65;5.72;;;18.00;68.30;;;;;;5044536;28;20136;-63
2022/09/01 01:27:44;;;;;;;7.60;6.10;;;18.00;68.00;;;;;;5056144;28;20029;-63
2022/09/01 01:30:11;;;;;;;8.63;6.57;;;18.00;68.00;;;;;;5055042;28;20053;-62
2022/09/01 01:32:42;;;;;;;7.68;6.43;;;17.90;68.00;;;;;;5045150;28;20120;-63
2022/09/01 01:35:14;;;;;;;9.05;6.15;;;17.90;68.10;;;;;;5043710;28;20032;-63
2022/09/01 01:37:45;;;;;;;8.13;6.15;;;17.90;68.20;;;;;;5046629;28;20453;-63
2022/09/01 01:40:14;;;;;;;9.75;6.10;;;17.80;68.30;;;;;;5043914;28;20034;-64
2022/09/01 01:42:52;;;;;;;8.68;6.30;;;17.80;68.20;;;;;;5042616;28;20029;-63
2022/09/01 01:45:23;;;;;;;7.82;6.35;;;17.70;68.50;;;;;;5042952;28;20033;-63
2022/09/01 01:47:55;;;;;;;9.60;7.03;;;17.70;68.40;;;;;;5036928;28;20049;-63
2022/09/01 01:50:33;;;;;;;9.10;6.70;;;17.70;68.30;;;;;;5045508;28;20026;-62
2022/09/01 01:53:00;;;;;;;10.80;6.35;;;17.70;68.70;;;;;;5033396;28;20034;-62
2022/09/01 01:55:29;;;;;;;8.38;6.80;;;17.70;68.30;;;;;;5044581;28;20034;-61
2022/09/01 01:57:56;;;;;;;14.98;7.90;;;17.60;68.30;;;;;;5044367;28;20116;-63
2022/09/01 02:00:26;;;;;;;9.20;7.57;;;17.60;68.40;;;;;;5045990;28;20036;-63
2022/09/01 02:02:53;;;;;;;9.93;8.07;;;17.60;68.70;;;;;;5039389;28;20057;-63
2022/09/01 02:05:25;;;;;;;13.27;8.63;;;17.60;68.80;;;;;;5044571;28;20041;-62
2022/09/01 02:07:54;;;;;;;13.20;8.15;;;17.60;69.40;;;;;;5042581;28;20037;-63
2022/09/01 02:10:41;;;;;;;16.90;9.40;;;17.50;69.30;;;;;;5048430;28;20072;-63
2022/09/01 02:13:10;;;;;;;11.18;9.13;;;17.60;69.50;;;;;;5043880;28;20056;-63
2022/09/01 02:15:43;;;;;;;13.77;9.98;;;17.60;69.70;;;;;;5047912;28;20530;-61
2022/09/01 02:18:16;;;;;;;12.10;9.23;;;17.60;70.10;;;;;;5033725;28;20385;-64
2022/09/01 02:20:44;;;;;;;12.82;9.32;;;17.60;70.40;;;;;;5049657;28;20395;-63
2022/09/01 02:23:10;;;;;;;12.50;9.68;;;17.70;70.20;;;;;;5060808;28;20421;-63
2022/09/01 02:25:42;;;;;;;12.15;9.30;;;17.70;70.50;;;;;;5065314;28;20058;-63
2022/09/01 02:28:14;;;;;;;12.77;10.32;;;17.70;70.90;;;;;;5058182;28;20392;-63
2022/09/01 02:30:41;;;;;;;11.75;8.70;;;17.70;70.70;;;;;;5037599;28;20034;-64
2022/09/01 02:33:08;;;;;;;13.27;9.43;;;17.70;70.80;;;;;;5048863;28;20049;-62
2022/09/01 02:35:36;;;;;;;13.60;9.82;;;17.70;70.80;;;;;;5047277;28;20021;-62
2022/09/01 02:38:03;;;;;;;14.40;10.35;;;17.80;71.00;;;;;;5046916;28;20029;-62
2022/09/01 02:40:30;;;;;;;16.45;12.05;;;17.80;71.00;;;;;;5056710;28;20033;-64
2022/09/01 02:42:58;;;;;;;14.80;10.95;;;17.80;71.50;;;;;;5050706;28;20498;-62
2022/09/01 02:45:26;;;;;;;16.67;11.43;;;17.80;71.30;;;;;;5050876;28;20030;-61
2022/09/01 02:47:52;;;;;;;14.02;11.30;;;17.90;71.50;;;;;;5053239;28;20033;-62
2022/09/01 02:50:20;;;;;;;16.50;11.38;;;17.90;71.60;;;;;;5067250;28;20032;-63
2022/09/01 02:52:48;;;;;;;14.00;10.23;;;17.90;72.40;;;;;;5053318;28;20022;-62
2022/09/01 02:55:20;;;;;;;14.52;11.68;;;17.90;71.70;;;;;;5055502;28;20022;-63
2022/09/01 02:57:48;;;;;;;15.00;11.60;;;18.00;71.90;;;;;;5055072;28;20117;-63
2022/09/01 03:00:27;;;;;;;12.88;10.50;;;18.00;72.00;;;;;;5048205;28;20103;-62
2022/09/01 03:02:55;;;;;;;16.40;10.88;;;18.00;71.80;;;;;;5045738;28;20041;-62
2022/09/01 03:05:25;;;;;;;20.35;11.18;;;18.00;71.80;;;;;;5066543;28;20033;-63
2022/09/01 03:08:03;;;;;;;14.50;10.73;;;18.10;71.80;;;;;;5042544;28;20044;-62
2022/09/01 03:10:32;;;;;;;14.32;10.85;;;18.10;72.50;;;;;;5046874;28;20026;-61
2022/09/01 03:13:07;;;;;;;14.45;10.98;;;18.10;71.80;;;;;;5049870;28;20032;-62
2022/09/01 03:15:35;;;;;;;15.82;11.95;;;18.20;72.40;;;;;;5044405;28;20048;-62
2022/09/01 03:18:02;;;;;;;14.13;10.80;;;18.20;72.20;;;;;;5049077;28;20023;-63
2022/09/01 03:20:32;;;;;;;13.35;10.57;;;18.20;71.70;;;;;;5053898;28;20135;-63
2022/09/01 03:22:58;;;;;;;14.82;10.73;;;18.20;71.80;;;;;;5051355;28;20062;-62
2022/09/01 03:25:25;;;;;;;16.17;10.60;;;18.20;71.70;;;;;;5045571;28;20033;-64
2022/09/01 03:27:51;;;;;;;15.35;10.57;;;18.20;71.80;;;;;;5048030;28;20037;-62
2022/09/01 03:30:18;;;;;;;15.02;9.20;;;18.20;71.90;;;;;;5056639;28;20033;-63
2022/09/01 03:32:44;;;;;;;12.80;10.00;;;18.30;72.00;;;;;;5045777;28;20029;-64
2022/09/01 03:35:11;;;;;;;12.65;10.07;;;18.30;72.00;;;;;;5044087;28;20025;-65
2022/09/01 03:37:38;;;;;;;13.27;10.68;;;18.30;72.00;;;;;;5049337;28;20036;-64
2022/09/01 03:40:07;;;;;;;14.27;10.43;;;18.30;72.00;;;;;;5054340;28;20108;-64
2022/09/01 03:42:34;;;;;;;12.40;10.35;;;18.30;72.00;;;;;;5046870;28;20026;-62
2022/09/01 03:45:08;;;;;;;11.50;10.00;;;18.40;71.90;;;;;;5048480;28;20033;-63
2022/09/01 03:47:39;;;;;;;13.07;9.95;;;18.40;71.80;;;;;;5045419;28;20025;-61
2022/09/01 03:50:10;;;;;;;12.90;10.18;;;18.40;72.00;;;;;;5046393;28;20033;-62
2022/09/01 03:52:36;;;;;;;12.02;9.73;;;18.40;71.70;;;;;;5046214;28;20028;-62
2022/09/01 03:55:02;;;;;;;13.82;10.52;;;18.40;71.60;;;;;;5061704;28;20077;-63
2022/09/01 03:57:28;;;;;;;13.32;9.82;;;18.40;71.50;;;;;;5050435;28;20062;-64
2022/09/01 03:59:55;;;;;;;12.55;10.20;;;18.40;71.60;;;;;;5052621;28;20043;-63
2022/09/01 04:02:21;;;;;;;14.00;9.85;;;18.50;71.60;;;;;;5046684;28;20032;-63
2022/09/01 04:04:47;;;;;;;12.18;8.93;;;18.50;71.50;;;;;;5054790;28;20040;-63
2022/09/01 04:07:13;;;;;;;12.48;9.65;;;18.50;71.50;;;;;;5054755;28;20029;-63
2022/09/01 04:09:38;;;;;;;10.82;9.02;;;18.50;71.50;;;;;;5058203;28;20047;-62
2022/09/01 04:12:07;;;;;;;11.48;9.55;;;18.50;71.50;;;;;;5049277;28;20029;-63
2022/09/01 04:14:34;;;;;;;13.95;9.30;;;18.50;71.40;;;;;;5047698;28;20430;-63
2022/09/01 04:19:44;;;;;;;9.98;7.68;;;18.60;71.50;;;;;;5056138;28;20115;-64
2022/09/01 04:22:13;;;;;;;11.70;9.20;;;18.60;71.20;;;;;;5044316;28;20030;-63
2022/09/01 04:24:41;;;;;;;11.02;9.35;;;18.60;71.20;;;;;;5057109;28;20137;-61
2022/09/01 04:27:09;;;;;;;10.15;8.95;;;18.60;71.30;;;;;;5047579;28;20049;-64
2022/09/01 04:29:35;;;;;;;10.75;9.00;;;18.60;71.30;;;;;;5049285;28;20128;-62
2022/09/01 04:32:08;;;;;;;10.73;9.38;;;18.60;71.30;;;;;;5055053;28;20025;-62
2022/09/01 04:34:37;;;;;;;10.70;9.13;;;18.60;71.50;;;;;;5057217;28;20025;-63
2022/09/01 04:37:11;;;;;;;11.82;9.02;;;18.70;71.40;;;;;;5064237;28;20079;-62
2022/09/01 04:39:38;;;;;;;13.25;9.45;;;18.60;71.70;;;;;;5045975;28;20025;-63
2022/09/01 04:42:05;;;;;;;12.45;10.18;;;18.70;71.40;;;;;;5060379;28;20025;-62
2022/09/01 04:44:31;;;;;;;12.15;9.68;;;18.70;71.50;;;;;;5044257;28;20033;-63
2022/09/01 04:46:56;;;;;;;11.45;9.73;;;18.70;71.40;;;;;;5047728;28;20025;-63
2022/09/01 04:49:22;;;;;;;14.18;10.30;;;18.70;71.40;;;;;;5051720;28;20040;-62
2022/09/01 04:51:51;;;;;;;18.27;10.65;;;18.70;71.40;;;;;;5048739;28;20040;-62
2022/09/01 04:54:19;;;;;;;12.82;10.32;;;18.70;71.30;;;;;;5045902;28;20029;-62
2022/09/01 04:56:49;;;;;;;12.30;9.82;;;18.70;71.40;;;;;;5049224;28;20033;-64
2022/09/01 04:59:19;;;;;;;11.80;9.57;;;18.70;71.50;;;;;;5059421;28;20025;-63
2022/09/01 05:01:45;;;;;;;13.63;10.23;;;18.70;71.50;;;;;;5044151;28;20021;-63
2022/09/01 05:04:20;;;;;;;13.05;10.02;;;18.70;71.40;;;;;;5050706;28;20033;-62
2022/09/01 05:06:51;;;;;;;12.13;9.65;;;18.70;71.70;;;;;;5033943;28;20028;-63
2022/09/01 05:09:19;;;;;;;13.13;10.00;;;18.70;71.50;;;;;;5056705;28;20074;-62
2022/09/01 05:11:45;;;;;;;11.00;9.68;;;18.70;71.60;;;;;;5037731;28;20032;-62
2022/09/01 05:14:17;;;;;;;11.23;9.00;;;18.70;72.20;;;;;;5051129;28;20453;-63
2022/09/01 05:16:44;;;;;;;11.75;9.45;;;18.70;71.40;;;;;;5045766;28;20029;-62
2022/09/01 05:19:13;;;;;;;14.27;9.25;;;18.70;71.30;;;;;;5055920;28;20060;-63
2022/09/01 05:21:44;;;;;;;12.32;8.85;;;18.70;71.40;;;;;;5048629;28;20223;-62
2022/09/01 05:24:11;;;;;;;12.02;9.88;;;18.70;71.40;;;;;;5033008;28;20052;-62
2022/09/01 05:26:39;;;;;;;11.45;9.55;;;18.70;71.40;;;;;;5049289;28;20809;-62
2022/09/01 05:29:12;;;;;;;12.02;9.38;;;18.80;71.40;;;;;;5045466;28;20029;-62
2022/09/01 05:31:40;;;;;;;9.95;8.10;;;18.80;71.30;;;;;;5033069;28;20139;-63
2022/09/01 05:34:08;;;;;;;13.68;8.52;;;18.80;71.20;;;;;;5048218;28;20026;-63
2022/09/01 05:36:35;;;;;;;10.30;8.57;;;18.80;71.10;;;;;;5044020;28;20121;-62
2022/09/01 05:39:03;;;;;;;14.23;9.43;;;18.80;71.20;;;;;;5043435;28;20021;-62
2022/09/01 05:41:29;;;;;;;10.68;8.65;;;18.80;71.10;;;;;;5057529;28;20059;-63
2022/09/01 05:43:55;;;;;;;10.82;8.25;;;18.80;70.90;;;;;;5053054;28;20033;-62
2022/09/01 05:46:25;;;;;;;14.93;8.90;;;18.80;71.70;;;;;;5044866;28;20039;-63
2022/09/01 05:48:52;;;;;;;11.10;9.02;;;18.80;71.10;;;;;;5057015;28;20047;-64
2022/09/01 05:51:21;;;;;;;9.75;8.75;;;18.90;71.10;;;;;;5059443;28;20475;-61
2022/09/01 05:53:50;;;;;;;14.57;8.95;;;18.90;71.10;;;;;;5045968;28;20040;-63
2022/09/01 05:56:18;;;;;;;13.30;8.60;;;18.90;71.10;;;;;;5050797;28;20045;-63
2022/09/01 05:58:46;;;;;;;9.50;8.43;;;19.00;71.30;;;;;;5046597;28;20113;-62
2022/09/01 06:01:23;;;;;;;9.45;7.70;;;19.00;71.10;;;;;;5043270;28;20025;-62
2022/09/01 06:03:53;;;;;;;11.02;7.93;;;19.00;71.50;;;;;;5047341;28;20642;-63
2022/09/01 06:06:23;;;;;;;10.13;8.15;;;19.00;71.10;;;;;;5060827;28;20029;-64
2022/09/01 06:08:50;;;;;;;9.07;8.18;;;19.10;71.30;;;;;;5055851;28;20025;-64
2022/09/01 06:11:16;;;;;;;11.43;8.35;;;19.10;71.20;;;;;;5047013;28;20033;-63
2022/09/01 06:13:46;;;;;;;9.73;8.38;;;19.20;71.30;;;;;;5054902;28;20022;-63
2022/09/01 06:16:14;;;;;;;10.40;8.40;;;19.20;71.30;;;;;;5058316;28;20037;-65
2022/09/01 06:18:42;;;;;;;10.13;8.27;;;19.30;70.80;;;;;;5052532;28;20077;-64
2022/09/01 06:21:10;;;;;;;13.30;8.55;;;19.30;70.40;;;;;;5039746;28;20037;-63
2022/09/01 06:23:36;;;;;;;11.38;8.18;;;19.40;70.40;;;;;;5043022;28;20061;-63
2022/09/01 06:26:02;;;;;;;12.13;9.38;;;19.40;70.20;;;;;;5053750;28;20033;-62
2022/09/01 06:28:28;;;;;;;11.05;7.65;;;19.50;69.90;;;;;;5046880;28;20034;-64
2022/09/01 06:30:56;;;;;;;11.65;8.60;;;19.50;69.80;;;;;;5048076;28;20032;-63
2022/09/01 06:33:24;;;;;;;11.10;8.23;;;19.50;69.50;;;;;;5048995;28;20033;-62
2022/09/01 06:35:51;;;;;;;9.63;7.97;;;19.60;69.30;;;;;;5059536;28;20030;-63
2022/09/01 06:38:18;;;;;;;10.30;7.82;;;19.60;69.20;;;;;;5052297;28;20021;-63
2022/09/01 06:40:44;;;;;;;8.45;6.93;;;19.60;69.50;;;;;;5053578;28;20107;-64
2022/09/01 06:43:12;;;;;;;11.07;7.28;;;19.60;69.50;;;;;;5051507;28;20029;-63
2022/09/01 06:45:44;;;;;;;10.20;8.75;;;19.70;69.60;;;;;;5057600;28;20121;-64
2022/09/01 06:48:14;;;;;;;8.57;7.45;;;19.70;69.60;;;;;;5052070;28;20067;-63
2022/09/01 06:50:41;;;;;;;10.00;8.25;;;19.80;70.00;;;;;;5040070;28;20026;-63
2022/09/01 06:53:10;;;;;;;8.32;7.30;;;19.90;69.00;;;;;;5044268;28;20026;-64
2022/09/01 06:55:37;;;;;;;7.85;7.05;;;20.00;69.20;;;;;;5048956;28;20156;-63
2022/09/01 06:58:08;;;;;;;7.30;6.30;;;20.00;69.10;;;;;;5057683;28;20040;-62
2022/09/01 07:00:40;;;;;;;9.55;6.72;;;20.10;68.50;;;;;;5066099;28;20051;-63
2022/09/01 07:03:08;;;;;;;10.60;6.78;;;20.20;68.50;;;;;;5044488;28;20057;-64
2022/09/01 07:05:38;;;;;;;8.70;6.78;;;20.30;68.40;;;;;;5059206;28;20036;-63
2022/09/01 07:08:08;;;;;;;10.43;7.10;;;20.30;68.10;;;;;;5054759;28;20029;-62
2022/09/01 07:10:43;;;;;;;8.45;6.82;;;20.40;67.80;;;;;;5092135;28;20044;-61
2022/09/01 07:13:17;;;;;;;8.75;6.63;;;20.40;67.40;;;;;;5051480;28;20026;-62
2022/09/01 07:15:43;;;;;;;8.07;6.97;;;20.50;67.40;;;;;;5046929;28;20586;-63
2022/09/01 07:18:11;;;;;;;6.72;5.90;;;20.50;67.00;;;;;;5044055;28;20033;-63
2022/09/01 07:20:40;;;;;;;7.05;6.25;;;20.50;66.70;;;;;;5051095;28;20753;-62
2022/09/01 07:23:06;;;;;;;7.18;5.38;;;20.50;66.30;;;;;;5047367;28;20022;-63
2022/09/01 07:25:40;;;;;;;8.10;6.10;;;20.50;66.30;;;;;;5057120;28;20042;-63
2022/09/01 07:28:06;;;;;;;7.65;6.00;;;20.50;66.40;;;;;;5045138;28;20029;-62
2022/09/01 07:30:34;;;;;;;6.75;5.45;;;20.50;66.90;;;;;;5064634;28;20373;-65
2022/09/01 07:33:00;;;;;;;7.32;5.60;;;20.60;67.10;;;;;;5055859;28;20036;-62
2022/09/01 07:35:25;;;;;;;8.15;5.55;;;20.60;66.90;;;;;;5051361;28;20029;-63
2022/09/01 07:37:51;;;;;;;6.28;5.18;;;20.70;66.80;;;;;;5055846;28;20030;-62
2022/09/01 07:40:20;;;;;;;6.20;4.85;;;20.70;66.70;;;;;;5062124;28;20420;-62
2022/09/01 07:42:46;;;;;;;6.50;4.85;;;20.90;66.60;;;;;;5037013;28;20025;-62
2022/09/01 07:45:16;;;;;;;5.38;4.35;;;20.90;66.10;;;;;;5065841;28;20059;-62
2022/09/01 07:47:43;;;;;;;6.60;4.68;;;21.00;65.50;;;;;;5044113;28;20036;-62
2022/09/01 07:50:13;;;;;;;5.57;4.57;;;21.10;65.50;;;;;;5047154;28;20093;-63
2022/09/01 07:52:43;;;;;;;5.63;4.47;;;21.10;65.10;;;;;;5055397;28;20025;-62
2022/09/01 07:55:11;;;;;;;7.85;4.97;;;21.20;64.90;;;;;;5041894;28;20503;-63
2022/09/01 07:57:41;;;;;;;6.45;4.97;;;21.20;64.70;;;;;;5051940;28;20040;-63
2022/09/01 08:00:10;;;;;;;5.95;4.93;;;21.20;64.70;;;;;;5054575;28;20037;-62
2022/09/01 08:02:37;;;;;;;6.35;5.03;;;21.20;64.90;;;;;;5056858;28;20479;-62
2022/09/01 08:05:08;;;;;;;7.70;5.13;;;21.20;65.00;;;;;;5050346;28;20137;-63
2022/09/01 08:07:35;;;;;;;6.00;4.57;;;21.20;64.10;;;;;;5045144;28;20025;-62
2022/09/01 08:10:02;;;;;;;5.20;4.68;;;21.30;64.20;;;;;;5048971;28;20060;-64
2022/09/01 08:12:28;;;;;;;4.93;4.38;;;21.20;64.10;;;;;;5054966;28;20037;-63
2022/09/01 08:14:54;;;;;;;5.35;4.13;;;21.20;63.80;;;;;;5044542;28;20033;-62
2022/09/01 08:17:20;;;;;;;5.50;4.18;;;21.20;63.70;;;;;;5050599;28;20053;-63
2022/09/01 08:19:45;;;;;;;5.35;4.38;;;21.20;63.80;;;;;;5064225;28;20120;-63
2022/09/01 08:22:12;;;;;;;7.07;4.85;;;21.20;64.60;;;;;;5037958;28;20053;-62
2022/09/01 08:24:38;;;;;;;7.82;4.88;;;21.30;64.90;;;;;;5044896;28;20037;-65
2022/09/01 08:27:03;;;;;;;5.05;4.20;;;21.50;65.20;;;;;;5065601;28;20034;-63
2022/09/01 08:29:29;;;;;;;7.43;4.50;;;21.60;64.70;;;;;;5047005;28;20040;-63
2022/09/01 08:31:57;;;;;;;4.68;3.95;;;21.80;63.70;;;;;;5046978;28;20031;-62
2022/09/01 08:34:24;;;;;;;4.35;3.95;;;21.90;63.50;;;;;;5060878;28;20055;-66
2022/09/01 08:36:50;;;;;;;5.68;4.78;;;22.00;63.00;;;;;;5055013;28;20044;-63
2022/09/01 08:39:16;;;;;;;5.22;4.72;;;22.00;62.30;;;;;;5059027;28;20050;-62
2022/09/01 08:42:16;;;;;;;5.50;4.47;;;22.00;62.00;;;;;;5051603;28;20033;-64
2022/09/01 08:44:59;;;;;;;7.22;4.75;;;21.90;61.30;;;;;;5044191;28;20068;-64
2022/09/01 08:47:25;;;;;;;6.10;5.28;;;21.90;61.20;;;;;;5042851;28;20029;-63
2022/09/01 08:49:56;;;;;;;7.72;5.13;;;21.80;61.30;;;;;;5043016;28;20030;-63
2022/09/01 08:52:31;;;;;;;6.35;5.03;;;21.70;61.80;;;;;;5045663;28;20022;-62
2022/09/01 08:55:08;;;;;;;7.85;4.90;;;21.60;62.30;;;;;;5050819;28;20036;-63
2022/09/01 08:57:40;;;;;;;6.20;5.40;;;21.50;63.20;;;;;;5048772;28;20026;-63
2022/09/01 09:00:10;;;;;;;11.35;5.38;;;21.50;62.30;;;;;;5082716;28;20030;-62
2022/09/01 09:03:05;;;;;;;7.82;4.80;;;21.50;62.20;;;;;;5047433;28;20021;-63
2022/09/01 09:05:47;;;;;;;5.30;4.32;;;21.50;62.70;;;;;;5046283;28;20041;-62
2022/09/01 09:08:31;;;;;;;7.57;5.10;;;21.50;62.80;;;;;;5048260;28;20093;-62
2022/09/01 09:11:01;;;;;;;6.10;4.82;;;21.50;62.30;;;;;;5046882;28;20030;-62
2022/09/01 09:13:33;;;;;;;5.15;4.63;;;21.50;62.50;;;;;;5041788;28;20037;-64
2022/09/01 09:16:10;;;;;;;7.25;4.82;;;21.50;62.60;;;;;;5051820;28;20022;-63
2022/09/01 09:18:53;;;;;;;5.05;4.43;;;21.50;62.80;;;;;;5040885;28;20052;-63
2022/09/01 09:21:34;;;;;;;8.02;4.53;;;21.50;63.20;;;;;;5049495;28;20041;-63
2022/09/01 09:24:08;;;;;;;4.47;3.67;;;21.60;63.20;;;;;;5040589;28;20113;-62
2022/09/01 09:26:34;;;;;;;4.35;3.60;;;21.60;62.70;;;;;;5041981;28;20117;-63
2022/09/01 09:29:00;;;;;;;8.10;3.75;;;21.70;62.70;;;;;;5046205;28;20050;-62
2022/09/01 09:31:41;;;;;;;3.50;3.08;;;21.80;62.00;;;;;;5051944;28;20036;-63
2022/09/01 09:34:17;;;;;;;4.30;3.53;;;21.80;61.60;;;;;;5049658;28;20033;-61
2022/09/01 09:36:45;;;;;;;6.43;3.13;;;21.90;61.10;;;;;;5044140;28;20033;-61
2022/09/01 09:39:17;;;;;;;3.83;3.42;;;22.00;61.10;;;;;;5044568;28;20032;-63
2022/09/01 09:42:00;;;;;;;4.70;3.63;;;22.10;61.00;;;;;;5047510;28;20034;-63
2022/09/01 09:44:30;;;;;;;7.70;3.75;;;22.10;60.80;;;;;;5044422;28;20037;-64
2022/09/01 09:46:56;;;;;;;5.10;3.72;;;22.20;60.60;;;;;;5044226;28;20029;-63
2022/09/01 09:49:32;;;;;;;5.50;4.10;;;22.20;60.40;;;;;;5043191;28;20673;-64
2022/09/01 09:52:07;;;;;;;5.43;3.95;;;22.20;60.10;;;;;;4991962;28;20021;-64
2022/09/01 09:54:34;;;;;;;4.20;3.80;;;22.30;59.90;;;;;;5045341;28;20442;-64
2022/09/01 09:57:08;;;;;;;4.78;4.35;;;22.30;60.00;;;;;;5062491;28;20056;-64
2022/09/01 09:59:47;;;;;;;10.60;4.65;;;22.30;59.90;;;;;;5053087;28;20033;-64
2022/09/01 10:02:20;;;;;;;4.35;3.60;;;22.30;59.80;;;;;;5056365;28;20037;-65
2022/09/01 10:04:45;;;;;;;6.22;4.05;;;22.30;60.10;;;;;;5057972;28;20468;-63
2022/09/01 10:07:35;;;;;;;5.28;3.70;;;22.30;60.20;;;;;;5063309;28;20070;-63
2022/09/01 10:10:06;;;;;;;9.07;3.85;;;22.30;58.10;;;;;;5063480;28;20033;-64
2022/09/01 10:12:32;;;;;;;6.03;3.90;;;22.30;59.50;;;;;;5026376;28;20034;-64
2022/09/01 10:15:09;;;;;;;6.10;4.05;;;22.30;59.50;;;;;;5050095;28;20026;-63
2022/09/01 10:17:39;;;;;;;3.92;3.33;;;22.30;59.40;;;;;;5033720;28;20037;-62
2022/09/01 10:20:20;;;;;;;3.85;3.10;;;22.40;59.90;;;;;;5039766;28;20563;-62
2022/09/01 10:22:47;;;;;;;5.65;3.42;;;22.60;60.70;;;;;;5024005;28;20134;-64
2022/09/01 10:25:20;;;;;;;4.30;3.40;;;22.80;60.90;;;;;;5054070;28;20455;-63
2022/09/01 10:28:01;;;;;;;5.22;2.97;;;23.10;59.70;;;;;;5027843;28;20075;-67
2022/09/01 10:30:28;;;;;;;6.32;2.90;;;23.30;58.50;;;;;;5044147;28;20093;-64
2022/09/01 10:32:59;;;;;;;8.25;3.15;;;23.50;58.20;;;;;;5061406;28;20084;-65
2022/09/01 10:35:33;;;;;;;4.40;2.70;;;23.70;58.10;;;;;;5036318;28;20029;-65
2022/09/01 10:38:06;;;;;;;3.40;2.75;;;23.80;57.60;;;;;;5033401;28;20037;-64
2022/09/01 10:40:45;;;;;;;3.25;2.75;;;23.80;56.60;;;;;;5048112;28;20098;-63
2022/09/01 10:43:32;;;;;;;3.20;2.90;;;23.80;56.20;;;;;;5059976;28;20025;-63
2022/09/01 10:45:57;;;;;;;3.67;3.33;;;23.80;56.20;;;;;;5055858;28;20040;-64
2022/09/01 10:48:32;;;;;;;3.17;2.67;;;23.80;56.40;;;;;;5054443;28;20037;-64
2022/09/01 10:51:13;;;;;;;5.72;2.97;;;23.80;56.10;;;;;;5027902;28;20037;-64
2022/09/01 10:53:46;;;;;;;4.78;3.10;;;23.80;55.50;;;;;;5044696;28;20021;-64
2022/09/01 10:56:15;;;;;;;5.13;3.00;;;23.80;56.60;;;;;;5056300;28;20037;-64
2022/09/01 10:58:52;;;;;;;3.85;2.78;;;23.80;56.60;;;;;;5066653;28;20059;-64
2022/09/01 11:01:40;;;;;;;2.92;2.65;;;23.90;56.30;;;;;;5048466;28;20030;-64
2022/09/01 11:04:10;;;;;;;3.42;2.97;;;23.90;55.50;;;;;;5063182;28;20060;-63
2022/09/01 11:06:57;;;;;;;3.35;2.60;;;24.00;55.50;;;;;;5059130;28;20029;-63
2022/09/01 11:09:25;;;;;;;3.75;3.03;;;24.00;55.50;;;;;;5047505;28;20025;-65
2022/09/01 11:12:27;;;;;;;3.90;3.10;;;24.00;55.40;;;;;;5063872;28;20083;-63
2022/09/01 11:15:01;;;;;;;5.00;2.50;;;24.00;54.80;;;;;;5040400;28;20038;-63
2022/09/01 11:17:35;;;;;;;3.50;2.88;;;24.00;54.90;;;;;;5059662;28;20144;-64
2022/09/01 11:20:22;;;;;;;3.40;2.75;;;23.90;55.20;;;;;;5027460;28;20050;-64
2022/09/01 11:23:31;;;;;;;2.90;2.50;;;23.90;54.70;;;;;;5049802;28;20037;-64
2022/09/01 11:26:00;;;;;;;3.03;2.53;;;23.90;54.50;;;;;;5057231;28;20041;-64
2022/09/01 11:28:33;;;;;;;3.67;2.53;;;24.00;55.40;;;;;;5054187;28;20029;-65
2022/09/01 11:31:05;;;;;;;3.33;2.78;;;24.00;55.20;;;;;;5064021;28;20048;-65
2022/09/01 11:33:43;;;;;;;2.92;2.35;;;24.00;55.00;;;;;;5063558;28;20037;-64
2022/09/01 11:36:17;;;;;;;2.58;2.38;;;24.10;54.90;;;;;;5060153;28;20017;-63
2022/09/01 11:39:13;;;;;;;3.22;2.20;;;24.20;55.00;;;;;;5053585;28;20025;-63
2022/09/01 11:41:39;;;;;;;3.25;2.30;;;24.30;55.00;;;;;;5029487;28;20145;-63
2022/09/01 11:44:32;;;;;;;2.65;2.22;;;24.50;55.70;;;;;;5048769;28;21055;-63
2022/09/01 11:47:03;;;;;;;2.30;2.08;;;24.80;55.20;;;;;;5026650;28;20061;-64
2022/09/01 11:49:30;;;;;;;2.67;1.75;;;25.10;54.70;;;;;;5047348;28;20096;-65
2022/09/01 11:51:59;;;;;;;4.28;1.75;;;25.30;54.20;;;;;;5044509;28;20053;-63
2022/09/01 11:54:25;;;;;;;2.70;2.10;;;25.50;53.50;;;;;;5048096;28;20030;-64
2022/09/01 11:56:51;;;;;;;3.05;2.10;;;25.70;52.80;;;;;;5062947;28;20041;-64
2022/09/01 11:59:50;;;;;;;2.53;1.77;;;25.80;51.90;;;;;;5065519;28;20086;-64
2022/09/01 12:02:24;;;;;;;3.95;1.85;;;25.90;52.00;;;;;;5026833;28;20041;-63
2022/09/01 12:04:53;;;;;;;2.63;1.83;;;25.90;51.40;;;;;;5023605;28;20054;-63
2022/09/01 12:07:30;;;;;;;3.33;1.70;;;25.90;51.50;;;;;;5039189;28;20033;-63
2022/09/01 12:09:56;;;;;;;2.90;2.47;;;26.00;50.60;;;;;;5023829;28;20030;-64
2022/09/01 12:12:40;;;;;;;3.05;2.17;;;26.00;51.20;;;;;;5040884;28;20111;-64
2022/09/01 12:15:16;;;;;;;1.92;1.73;;;26.00;47.70;;;;;;5018222;28;20034;-64
2022/09/01 12:17:42;;;;;;;2.28;2.08;;;25.90;50.40;;;;;;5038987;28;20036;-64
2022/09/01 12:20:22;;;;;;;2.25;2.05;;;25.90;50.50;;;;;;5043710;28;20049;-65
2022/09/01 12:22:48;;;;;;;2.70;2.03;;;25.90;49.90;;;;;;5048712;28;20020;-63
2022/09/01 12:25:27;;;;;;;3.03;1.90;;;25.80;50.20;;;;;;5038778;28;20136;-63
2022/09/01 12:27:52;;;;;;;3.30;1.90;;;25.80;49.80;;;;;;5038364;28;20033;-63
2022/09/01 12:30:19;;;;;;;2.13;1.88;;;25.70;50.40;;;;;;5037351;28;20228;-64
2022/09/01 12:32:45;;;;;;;2.40;1.80;;;25.70;50.70;;;;;;5023531;28;20080;-63
2022/09/01 12:35:20;;;;;;;2.33;1.92;;;25.70;50.70;;;;;;5025106;28;20034;-64
2022/09/01 12:37:47;;;;;;;2.90;2.15;;;25.80;49.70;;;;;;5032962;28;20045;-63
2022/09/01 12:40:33;;;;;;;4.60;2.17;;;25.80;49.20;;;;;;5056727;28;20039;-62
2022/09/01 12:42:59;;;;;;;3.75;2.20;;;25.80;47.30;;;;;;5064072;28;20047;-64
2022/09/01 12:45:46;;;;;;;2.35;1.73;;;25.80;49.00;;;;;;5053975;28;20045;-64
2022/09/01 12:48:30;;;;;;;2.60;1.90;;;25.70;49.00;;;;;;5058686;28;20036;-63
2022/09/01 12:51:15;;;;;;;3.25;2.30;;;25.80;49.60;;;;;;5038445;28;20026;-62
2022/09/01 12:53:59;;;;;;;2.72;1.80;;;25.80;49.20;;;;;;5038433;28;20027;-64
2022/09/01 12:56:25;;;;;;;5.15;1.90;;;25.90;49.30;;;;;;5035452;28;20069;-63
2022/09/01 12:59:12;;;;;;;2.78;1.90;;;26.00;50.00;;;;;;5062581;28;20024;-62
2022/09/01 13:01:40;;;;;;;2.35;1.73;;;26.10;49.00;;;;;;5064637;28;20472;-63
2022/09/01 13:04:15;;;;;;;2.38;1.75;;;26.10;49.30;;;;;;5063381;28;20040;-63
2022/09/01 13:06:41;;;;;;;2.83;1.85;;;26.20;49.10;;;;;;5065500;28;20059;-63